Terminal Aerodrome Forecast
Issued by NWS Medford, OR

Home | Current Version | Previous Version | Text Only | Print | Product List | Glossary On
Versions: 1 2 3 4 5 6 7 8 9 10 11 12 13 14 15 16 17 18 19 20 21
000
FTUS46 KMFR 231844 AAA
TAFMFR
TAF AMD
KMFR 231844Z 2319/2418 VRB03KT P6SM FEW060 SCT120 BKN200
     FM232300 23009KT P6SM SCT050 BKN070 OVC120
     FM240300 14012G22KT P6SM -SHRA BKN050 BKN070 OVC090
      WS020/18040KT
     FM241200 17009KT 6SM RA BR SCT025 BKN035 OVC060=

USA.gov is the U.S. government's official web portal to all federal, state and local government web resources and services.